sensor_id;sensor_type;location;lat;lon;timestamp;temperature;humidity
33881;DHT22;20172;47.530;10.256;2022-08-01T00:01:47;20.40;99.90
33881;DHT22;20172;47.530;10.256;2022-08-01T00:04:12;20.30;99.90
33881;DHT22;20172;47.530;10.256;2022-08-01T00:06:38;20.30;99.90
33881;DHT22;20172;47.530;10.256;2022-08-01T00:09:03;20.40;99.90
33881;DHT22;20172;47.530;10.256;2022-08-01T00:11:29;20.40;99.90
33881;DHT22;20172;47.530;10.256;2022-08-01T00:13:55;20.50;99.90
33881;DHT22;20172;47.530;10.256;2022-08-01T00:16:20;20.50;99.90
33881;DHT22;20172;47.530;10.256;2022-08-01T00:18:49;20.60;99.90
33881;DHT22;20172;47.530;10.256;2022-08-01T00:21:15;20.50;99.90
33881;DHT22;20172;47.530;10.256;2022-08-01T00:23:41;20.40;99.90
33881;DHT22;20172;47.530;10.256;2022-08-01T00:26:07;20.40;99.90
33881;DHT22;20172;47.530;10.256;2022-08-01T00:28:33;20.40;99.90
33881;DHT22;20172;47.530;10.256;2022-08-01T00:30:58;20.40;99.90
33881;DHT22;20172;47.530;10.256;2022-08-01T00:33:24;20.40;99.90
33881;DHT22;20172;47.530;10.256;2022-08-01T00:35:50;20.40;99.90
33881;DHT22;20172;47.530;10.256;2022-08-01T00:38:15;20.40;99.90
33881;DHT22;20172;47.530;10.256;2022-08-01T00:40:41;20.40;99.90
33881;DHT22;20172;47.530;10.256;2022-08-01T00:43:06;20.40;99.90
33881;DHT22;20172;47.530;10.256;2022-08-01T00:45:32;20.30;99.90
33881;DHT22;20172;47.530;10.256;2022-08-01T00:47:58;20.20;99.90
33881;DHT22;20172;47.530;10.256;2022-08-01T00:50:24;20.10;99.90
33881;DHT22;20172;47.530;10.256;2022-08-01T00:52:50;20.00;99.90
33881;DHT22;20172;47.530;10.256;2022-08-01T00:55:18;20.00;99.90
33881;DHT22;20172;47.530;10.256;2022-08-01T00:57:44;19.80;99.90
33881;DHT22;20172;47.530;10.256;2022-08-01T01:00:10;19.80;99.90
33881;DHT22;20172;47.530;10.256;2022-08-01T01:02:36;19.80;99.90
33881;DHT22;20172;47.530;10.256;2022-08-01T01:05:02;19.80;99.90
33881;DHT22;20172;47.530;10.256;2022-08-01T01:10:25;19.70;99.90
33881;DHT22;20172;47.530;10.256;2022-08-01T01:13:13;19.60;99.90
33881;DHT22;20172;47.530;10.256;2022-08-01T01:15:50;19.60;99.90
33881;DHT22;20172;47.530;10.256;2022-08-01T01:18:22;19.60;99.90
33881;DHT22;20172;47.530;10.256;2022-08-01T01:31:46;19.50;99.90
33881;DHT22;20172;47.530;10.256;2022-08-01T01:34:15;19.40;99.90
33881;DHT22;20172;47.530;10.256;2022-08-01T01:36:43;19.40;99.90
33881;DHT22;20172;47.530;10.256;2022-08-01T01:39:10;19.40;99.90
33881;DHT22;20172;47.530;10.256;2022-08-01T01:41:37;19.40;99.90
33881;DHT22;20172;47.530;10.256;2022-08-01T01:44:04;19.40;99.90
33881;DHT22;20172;47.530;10.256;2022-08-01T01:46:31;19.20;99.90
33881;DHT22;20172;47.530;10.256;2022-08-01T01:48:58;19.10;99.90
33881;DHT22;20172;47.530;10.256;2022-08-01T01:51:25;19.10;99.90
33881;DHT22;20172;47.530;10.256;2022-08-01T01:53:53;19.00;99.90
33881;DHT22;20172;47.530;10.256;2022-08-01T01:56:21;18.80;99.90
33881;DHT22;20172;47.530;10.256;2022-08-01T01:58:51;18.60;99.90
33881;DHT22;20172;47.530;10.256;2022-08-01T02:01:19;18.60;99.90
33881;DHT22;20172;47.530;10.256;2022-08-01T02:03:48;18.60;99.90
33881;DHT22;20172;47.530;10.256;2022-08-01T02:06:15;18.50;99.90
33881;DHT22;20172;47.530;10.256;2022-08-01T02:08:42;18.50;99.90
33881;DHT22;20172;47.530;10.256;2022-08-01T02:11:08;18.50;99.90
33881;DHT22;20172;47.530;10.256;2022-08-01T02:13:55;18.60;99.90
33881;DHT22;20172;47.530;10.256;2022-08-01T02:16:27;18.60;99.90
33881;DHT22;20172;47.530;10.256;2022-08-01T02:18:54;18.60;99.90
33881;DHT22;20172;47.530;10.256;2022-08-01T02:21:32;18.60;99.90
33881;DHT22;20172;47.530;10.256;2022-08-01T02:26:43;18.40;99.90
33881;DHT22;20172;47.530;10.256;2022-08-01T02:29:17;18.20;99.90
33881;DHT22;20172;47.530;10.256;2022-08-01T02:31:45;17.90;99.90
33881;DHT22;20172;47.530;10.256;2022-08-01T02:34:16;17.70;99.90
33881;DHT22;20172;47.530;10.256;2022-08-01T02:36:44;17.60;99.90
33881;DHT22;20172;47.530;10.256;2022-08-01T02:39:13;17.50;99.90
33881;DHT22;20172;47.530;10.256;2022-08-01T02:41:43;17.50;99.90
33881;DHT22;20172;47.530;10.256;2022-08-01T02:44:10;17.60;99.90
33881;DHT22;20172;47.530;10.256;2022-08-01T02:46:50;17.60;99.90
33881;DHT22;20172;47.530;10.256;2022-08-01T02:49:18;17.70;99.90
33881;DHT22;20172;47.530;10.256;2022-08-01T02:51:45;17.80;99.90
33881;DHT22;20172;47.530;10.256;2022-08-01T02:54:12;17.80;99.90
33881;DHT22;20172;47.530;10.256;2022-08-01T02:56:40;17.80;99.90
33881;DHT22;20172;47.530;10.256;2022-08-01T02:59:19;17.80;99.90
33881;DHT22;20172;47.530;10.256;2022-08-01T03:01:46;17.90;99.90
33881;DHT22;20172;47.530;10.256;2022-08-01T03:04:12;17.90;99.90
33881;DHT22;20172;47.530;10.256;2022-08-01T03:06:40;17.90;99.90
33881;DHT22;20172;47.530;10.256;2022-08-01T03:09:07;17.90;99.90
33881;DHT22;20172;47.530;10.256;2022-08-01T03:11:34;17.90;99.90
33881;DHT22;20172;47.530;10.256;2022-08-01T03:14:05;18.10;99.90
33881;DHT22;20172;47.530;10.256;2022-08-01T03:16:32;18.20;99.90
33881;DHT22;20172;47.530;10.256;2022-08-01T03:18:59;18.20;99.90
33881;DHT22;20172;47.530;10.256;2022-08-01T03:21:28;18.30;99.90
33881;DHT22;20172;47.530;10.256;2022-08-01T03:23:57;18.30;99.90
33881;DHT22;20172;47.530;10.256;2022-08-01T03:26:28;18.30;99.90
33881;DHT22;20172;47.530;10.256;2022-08-01T03:29:02;18.20;99.90
33881;DHT22;20172;47.530;10.256;2022-08-01T03:31:28;18.40;99.90
33881;DHT22;20172;47.530;10.256;2022-08-01T03:33:54;18.50;99.90
33881;DHT22;20172;47.530;10.256;2022-08-01T03:36:26;18.50;99.90
33881;DHT22;20172;47.530;10.256;2022-08-01T03:38:52;18.40;99.90
33881;DHT22;20172;47.530;10.256;2022-08-01T03:41:22;18.10;99.90
33881;DHT22;20172;47.530;10.256;2022-08-01T03:43:58;17.90;99.90
33881;DHT22;20172;47.530;10.256;2022-08-01T03:46:32;17.90;99.90
33881;DHT22;20172;47.530;10.256;2022-08-01T03:49:01;17.70;99.90
33881;DHT22;20172;47.530;10.256;2022-08-01T03:51:29;17.80;99.90
33881;DHT22;20172;47.530;10.256;2022-08-01T03:53:57;17.70;99.90
33881;DHT22;20172;47.530;10.256;2022-08-01T03:56:25;17.70;99.90
33881;DHT22;20172;47.530;10.256;2022-08-01T03:58:52;17.80;99.90
33881;DHT22;20172;47.530;10.256;2022-08-01T04:01:19;17.80;99.90
33881;DHT22;20172;47.530;10.256;2022-08-01T04:03:45;17.90;99.90
33881;DHT22;20172;47.530;10.256;2022-08-01T04:06:11;17.90;99.90
33881;DHT22;20172;47.530;10.256;2022-08-01T04:08:39;18.00;99.90
33881;DHT22;20172;47.530;10.256;2022-08-01T04:11:05;18.10;99.90
33881;DHT22;20172;47.530;10.256;2022-08-01T04:13:33;18.10;99.90
33881;DHT22;20172;47.530;10.256;2022-08-01T04:15:58;18.10;99.90
33881;DHT22;20172;47.530;10.256;2022-08-01T04:18:24;18.10;99.90
33881;DHT22;20172;47.530;10.256;2022-08-01T04:20:50;18.10;99.90
33881;DHT22;20172;47.530;10.256;2022-08-01T04:23:18;17.80;99.90
33881;DHT22;20172;47.530;10.256;2022-08-01T04:25:47;17.90;99.90
33881;DHT22;20172;47.530;10.256;2022-08-01T04:28:14;17.90;99.90
33881;DHT22;20172;47.530;10.256;2022-08-01T04:30:43;18.00;99.90
33881;DHT22;20172;47.530;10.256;2022-08-01T04:33:11;18.10;99.90
33881;DHT22;20172;47.530;10.256;2022-08-01T04:35:40;18.00;99.90
33881;DHT22;20172;47.530;10.256;2022-08-01T04:38:08;17.90;99.90
33881;DHT22;20172;47.530;10.256;2022-08-01T04:40:35;17.80;99.90
33881;DHT22;20172;47.530;10.256;2022-08-01T04:43:02;17.70;99.90
33881;DHT22;20172;47.530;10.256;2022-08-01T04:45:28;17.60;99.90
33881;DHT22;20172;47.530;10.256;2022-08-01T04:47:54;17.70;99.90
33881;DHT22;20172;47.530;10.256;2022-08-01T04:50:20;17.80;99.90
33881;DHT22;20172;47.530;10.256;2022-08-01T04:52:47;17.80;99.90
33881;DHT22;20172;47.530;10.256;2022-08-01T04:55:13;18.00;99.90
33881;DHT22;20172;47.530;10.256;2022-08-01T04:57:41;18.00;99.90
33881;DHT22;20172;47.530;10.256;2022-08-01T05:00:08;18.10;99.90
33881;DHT22;20172;47.530;10.256;2022-08-01T05:02:34;18.30;99.90
33881;DHT22;20172;47.530;10.256;2022-08-01T05:05:00;18.60;99.90
33881;DHT22;20172;47.530;10.256;2022-08-01T05:07:25;18.70;99.90
33881;DHT22;20172;47.530;10.256;2022-08-01T05:09:51;18.70;99.90
33881;DHT22;20172;47.530;10.256;2022-08-01T05:12:17;18.80;99.90
33881;DHT22;20172;47.530;10.256;2022-08-01T05:14:43;18.90;99.90
33881;DHT22;20172;47.530;10.256;2022-08-01T05:17:09;18.60;99.90
33881;DHT22;20172;47.530;10.256;2022-08-01T05:19:37;18.70;99.90
33881;DHT22;20172;47.530;10.256;2022-08-01T05:22:04;18.70;99.90
33881;DHT22;20172;47.530;10.256;2022-08-01T05:24:38;18.80;99.90
33881;DHT22;20172;47.530;10.256;2022-08-01T05:27:04;19.00;99.90
33881;DHT22;20172;47.530;10.256;2022-08-01T05:29:32;19.20;99.90
33881;DHT22;20172;47.530;10.256;2022-08-01T05:31:57;19.30;99.90
33881;DHT22;20172;47.530;10.256;2022-08-01T05:34:24;19.50;99.90
33881;DHT22;20172;47.530;10.256;2022-08-01T05:36:50;19.70;99.90
33881;DHT22;20172;47.530;10.256;2022-08-01T05:39:16;19.80;99.90
33881;DHT22;20172;47.530;10.256;2022-08-01T05:41:42;19.80;99.90
33881;DHT22;20172;47.530;10.256;2022-08-01T05:44:08;19.70;99.90
33881;DHT22;20172;47.530;10.256;2022-08-01T05:46:34;19.70;99.90
33881;DHT22;20172;47.530;10.256;2022-08-01T05:49:01;19.80;99.90
33881;DHT22;20172;47.530;10.256;2022-08-01T05:51:27;20.00;99.90
33881;DHT22;20172;47.530;10.256;2022-08-01T05:53:53;20.10;99.90
33881;DHT22;20172;47.530;10.256;2022-08-01T05:56:20;20.20;99.90
33881;DHT22;20172;47.530;10.256;2022-08-01T05:58:46;20.40;99.90
33881;DHT22;20172;47.530;10.256;2022-08-01T06:01:12;20.60;99.90
33881;DHT22;20172;47.530;10.256;2022-08-01T06:03:38;20.60;99.90
33881;DHT22;20172;47.530;10.256;2022-08-01T06:06:04;20.80;99.90
33881;DHT22;20172;47.530;10.256;2022-08-01T06:08:30;20.80;99.90
33881;DHT22;20172;47.530;10.256;2022-08-01T06:10:56;21.00;99.90
33881;DHT22;20172;47.530;10.256;2022-08-01T06:13:21;21.20;99.90
33881;DHT22;20172;47.530;10.256;2022-08-01T06:15:48;21.30;99.90
33881;DHT22;20172;47.530;10.256;2022-08-01T06:18:14;21.40;99.90
33881;DHT22;20172;47.530;10.256;2022-08-01T06:20:40;21.40;99.90
33881;DHT22;20172;47.530;10.256;2022-08-01T06:23:06;21.30;99.90
33881;DHT22;20172;47.530;10.256;2022-08-01T06:25:32;21.30;99.90
33881;DHT22;20172;47.530;10.256;2022-08-01T06:27:59;21.10;99.90
33881;DHT22;20172;47.530;10.256;2022-08-01T06:30:25;21.20;99.90
33881;DHT22;20172;47.530;10.256;2022-08-01T06:32:51;21.30;99.90
33881;DHT22;20172;47.530;10.256;2022-08-01T06:35:17;21.30;99.90
33881;DHT22;20172;47.530;10.256;2022-08-01T06:37:43;21.10;99.90
33881;DHT22;20172;47.530;10.256;2022-08-01T06:40:12;21.00;99.90
33881;DHT22;20172;47.530;10.256;2022-08-01T06:42:38;21.10;99.90
33881;DHT22;20172;47.530;10.256;2022-08-01T06:45:08;21.10;99.90
33881;DHT22;20172;47.530;10.256;2022-08-01T06:47:35;21.10;99.90
33881;DHT22;20172;47.530;10.256;2022-08-01T06:50:01;21.40;99.90
33881;DHT22;20172;47.530;10.256;2022-08-01T06:52:27;21.60;99.90
33881;DHT22;20172;47.530;10.256;2022-08-01T06:54:53;21.60;99.90
33881;DHT22;20172;47.530;10.256;2022-08-01T06:57:18;21.70;99.90
33881;DHT22;20172;47.530;10.256;2022-08-01T06:59:44;21.90;99.90
33881;DHT22;20172;47.530;10.256;2022-08-01T07:02:10;22.00;99.90
33881;DHT22;20172;47.530;10.256;2022-08-01T07:04:36;22.10;99.90
33881;DHT22;20172;47.530;10.256;2022-08-01T07:07:02;22.40;99.90
33881;DHT22;20172;47.530;10.256;2022-08-01T07:09:28;22.70;99.90
33881;DHT22;20172;47.530;10.256;2022-08-01T07:11:53;23.00;99.90
33881;DHT22;20172;47.530;10.256;2022-08-01T07:14:20;23.30;99.90
33881;DHT22;20172;47.530;10.256;2022-08-01T07:16:46;23.40;99.90
33881;DHT22;20172;47.530;10.256;2022-08-01T07:19:12;23.40;99.90
33881;DHT22;20172;47.530;10.256;2022-08-01T07:21:38;23.50;99.90
33881;DHT22;20172;47.530;10.256;2022-08-01T07:24:04;23.60;99.90
33881;DHT22;20172;47.530;10.256;2022-08-01T07:26:30;23.60;99.90
33881;DHT22;20172;47.530;10.256;2022-08-01T07:28:56;23.60;99.90
33881;DHT22;20172;47.530;10.256;2022-08-01T07:31:22;23.60;99.90
33881;DHT22;20172;47.530;10.256;2022-08-01T07:33:49;23.70;99.90
33881;DHT22;20172;47.530;10.256;2022-08-01T07:36:17;23.80;99.90
33881;DHT22;20172;47.530;10.256;2022-08-01T07:38:44;23.80;99.90
33881;DHT22;20172;47.530;10.256;2022-08-01T07:41:10;23.90;99.90
33881;DHT22;20172;47.530;10.256;2022-08-01T07:43:36;24.10;99.90
33881;DHT22;20172;47.530;10.256;2022-08-01T07:46:03;24.20;99.90
33881;DHT22;20172;47.530;10.256;2022-08-01T07:48:28;24.30;99.90
33881;DHT22;20172;47.530;10.256;2022-08-01T07:50:55;24.30;99.90
33881;DHT22;20172;47.530;10.256;2022-08-01T07:53:21;24.40;99.90
33881;DHT22;20172;47.530;10.256;2022-08-01T07:55:46;24.50;99.90
33881;DHT22;20172;47.530;10.256;2022-08-01T07:58:13;24.60;99.90
33881;DHT22;20172;47.530;10.256;2022-08-01T08:00:39;24.60;99.90
33881;DHT22;20172;47.530;10.256;2022-08-01T08:03:04;24.70;99.90
33881;DHT22;20172;47.530;10.256;2022-08-01T08:05:31;24.80;99.90
33881;DHT22;20172;47.530;10.256;2022-08-01T08:08:09;25.00;99.90
33881;DHT22;20172;47.530;10.256;2022-08-01T08:10:35;25.20;99.90
33881;DHT22;20172;47.530;10.256;2022-08-01T08:13:01;25.10;99.90
33881;DHT22;20172;47.530;10.256;2022-08-01T08:15:28;25.00;99.90
33881;DHT22;20172;47.530;10.256;2022-08-01T08:17:53;25.10;99.90
33881;DHT22;20172;47.530;10.256;2022-08-01T08:20:19;25.20;99.90
33881;DHT22;20172;47.530;10.256;2022-08-01T08:22:50;25.50;99.90
33881;DHT22;20172;47.530;10.256;2022-08-01T08:25:16;25.60;99.90
33881;DHT22;20172;47.530;10.256;2022-08-01T08:27:42;25.60;99.90
33881;DHT22;20172;47.530;10.256;2022-08-01T08:30:08;25.50;99.90
33881;DHT22;20172;47.530;10.256;2022-08-01T08:32:34;25.60;99.90
33881;DHT22;20172;47.530;10.256;2022-08-01T08:35:00;25.80;99.90
33881;DHT22;20172;47.530;10.256;2022-08-01T08:37:26;26.00;99.90
33881;DHT22;20172;47.530;10.256;2022-08-01T08:39:52;26.10;99.80
33881;DHT22;20172;47.530;10.256;2022-08-01T08:42:18;26.30;99.90
33881;DHT22;20172;47.530;10.256;2022-08-01T08:44:44;26.40;98.80
33881;DHT22;20172;47.530;10.256;2022-08-01T08:47:11;26.40;99.20
33881;DHT22;20172;47.530;10.256;2022-08-01T08:49:38;26.40;99.00
33881;DHT22;20172;47.530;10.256;2022-08-01T08:52:04;26.40;98.40
33881;DHT22;20172;47.530;10.256;2022-08-01T08:54:30;26.40;98.80
33881;DHT22;20172;47.530;10.256;2022-08-01T08:56:59;26.50;98.80
33881;DHT22;20172;47.530;10.256;2022-08-01T08:59:26;26.60;98.60
33881;DHT22;20172;47.530;10.256;2022-08-01T09:01:53;26.80;99.40
33881;DHT22;20172;47.530;10.256;2022-08-01T09:04:21;26.90;99.00
33881;DHT22;20172;47.530;10.256;2022-08-01T09:06:49;27.00;99.40
33881;DHT22;20172;47.530;10.256;2022-08-01T09:09:15;27.10;98.20
33881;DHT22;20172;47.530;10.256;2022-08-01T09:11:41;27.10;97.50
33881;DHT22;20172;47.530;10.256;2022-08-01T09:14:17;27.10;97.30
33881;DHT22;20172;47.530;10.256;2022-08-01T09:17:03;27.10;97.70
33881;DHT22;20172;47.530;10.256;2022-08-01T09:19:37;27.30;97.30
33881;DHT22;20172;47.530;10.256;2022-08-01T09:22:05;27.40;98.40
33881;DHT22;20172;47.530;10.256;2022-08-01T09:24:33;27.40;97.80
33881;DHT22;20172;47.530;10.256;2022-08-01T09:27:00;27.50;97.80
33881;DHT22;20172;47.530;10.256;2022-08-01T09:29:29;27.50;96.90
33881;DHT22;20172;47.530;10.256;2022-08-01T09:31:55;27.60;97.20
33881;DHT22;20172;47.530;10.256;2022-08-01T09:34:29;27.60;96.80
33881;DHT22;20172;47.530;10.256;2022-08-01T09:37:00;27.70;95.90
33881;DHT22;20172;47.530;10.256;2022-08-01T09:41:54;27.80;96.90
33881;DHT22;20172;47.530;10.256;2022-08-01T09:44:39;27.80;96.60
33881;DHT22;20172;47.530;10.256;2022-08-01T09:47:05;28.00;96.60
33881;DHT22;20172;47.530;10.256;2022-08-01T09:49:36;28.10;96.40
33881;DHT22;20172;47.530;10.256;2022-08-01T09:52:13;28.20;95.50
33881;DHT22;20172;47.530;10.256;2022-08-01T09:54:40;28.40;95.40
33881;DHT22;20172;47.530;10.256;2022-08-01T09:57:17;28.50;95.80
33881;DHT22;20172;47.530;10.256;2022-08-01T09:59:49;28.70;95.70
33881;DHT22;20172;47.530;10.256;2022-08-01T10:04:52;28.90;94.80
33881;DHT22;20172;47.530;10.256;2022-08-01T10:07:19;28.90;95.00
33881;DHT22;20172;47.530;10.256;2022-08-01T10:09:46;28.90;94.50
33881;DHT22;20172;47.530;10.256;2022-08-01T10:12:20;29.10;94.40
33881;DHT22;20172;47.530;10.256;2022-08-01T10:14:48;29.10;93.20
33881;DHT22;20172;47.530;10.256;2022-08-01T10:17:16;29.10;93.40
33881;DHT22;20172;47.530;10.256;2022-08-01T10:19:43;29.00;93.10
33881;DHT22;20172;47.530;10.256;2022-08-01T10:22:10;29.20;93.50
33881;DHT22;20172;47.530;10.256;2022-08-01T10:24:38;29.40;92.50
33881;DHT22;20172;47.530;10.256;2022-08-01T10:27:07;29.50;92.00
33881;DHT22;20172;47.530;10.256;2022-08-01T10:32:08;29.90;92.50
33881;DHT22;20172;47.530;10.256;2022-08-01T10:34:36;30.20;93.70
33881;DHT22;20172;47.530;10.256;2022-08-01T10:37:03;29.90;92.40
33881;DHT22;20172;47.530;10.256;2022-08-01T10:39:31;30.00;91.00
33881;DHT22;20172;47.530;10.256;2022-08-01T10:41:56;30.20;90.60
33881;DHT22;20172;47.530;10.256;2022-08-01T10:44:24;30.00;91.90
33881;DHT22;20172;47.530;10.256;2022-08-01T10:46:54;29.80;92.00
33881;DHT22;20172;47.530;10.256;2022-08-01T10:49:22;29.90;91.50
33881;DHT22;20172;47.530;10.256;2022-08-01T10:51:51;29.90;91.20
33881;DHT22;20172;47.530;10.256;2022-08-01T10:54:17;29.80;91.60
33881;DHT22;20172;47.530;10.256;2022-08-01T10:56:47;29.60;90.10
33881;DHT22;20172;47.530;10.256;2022-08-01T10:59:27;29.40;90.20
33881;DHT22;20172;47.530;10.256;2022-08-01T11:02:04;29.20;91.00
33881;DHT22;20172;47.530;10.256;2022-08-01T11:07:17;28.90;87.60
33881;DHT22;20172;47.530;10.256;2022-08-01T11:09:59;28.80;87.80
33881;DHT22;20172;47.530;10.256;2022-08-01T11:12:38;28.90;89.00
33881;DHT22;20172;47.530;10.256;2022-08-01T11:17:31;28.90;90.10
33881;DHT22;20172;47.530;10.256;2022-08-01T11:20:08;28.90;87.20
33881;DHT22;20172;47.530;10.256;2022-08-01T11:30:45;28.50;79.40
33881;DHT22;20172;47.530;10.256;2022-08-01T11:33:12;28.50;79.50
33881;DHT22;20172;47.530;10.256;2022-08-01T11:39:10;29.30;78.30
33881;DHT22;20172;47.530;10.256;2022-08-01T11:41:36;29.80;80.60
33881;DHT22;20172;47.530;10.256;2022-08-01T11:46:47;29.70;77.10
33881;DHT22;20172;47.530;10.256;2022-08-01T11:57:27;30.30;69.10
33881;DHT22;20172;47.530;10.256;2022-08-01T11:59:57;30.50;72.10
33881;DHT22;20172;47.530;10.256;2022-08-01T12:02:27;30.30;69.80
33881;DHT22;20172;47.530;10.256;2022-08-01T12:07:22;30.40;66.40
33881;DHT22;20172;47.530;10.256;2022-08-01T12:09:51;30.70;71.00
33881;DHT22;20172;47.530;10.256;2022-08-01T12:12:21;31.20;70.90
33881;DHT22;20172;47.530;10.256;2022-08-01T12:14:55;31.40;73.50
33881;DHT22;20172;47.530;10.256;2022-08-01T12:17:49;31.60;67.90
33881;DHT22;20172;47.530;10.256;2022-08-01T12:20:19;30.90;63.70
33881;DHT22;20172;47.530;10.256;2022-08-01T12:22:45;30.80;65.60
33881;DHT22;20172;47.530;10.256;2022-08-01T12:25:14;30.80;65.10
33881;DHT22;20172;47.530;10.256;2022-08-01T12:27:41;30.80;62.90
33881;DHT22;20172;47.530;10.256;2022-08-01T12:30:15;31.10;65.30
33881;DHT22;20172;47.530;10.256;2022-08-01T12:32:43;31.20;64.80
33881;DHT22;20172;47.530;10.256;2022-08-01T12:35:15;31.50;63.20
33881;DHT22;20172;47.530;10.256;2022-08-01T12:37:43;31.40;61.30
33881;DHT22;20172;47.530;10.256;2022-08-01T12:42:44;31.80;60.80
33881;DHT22;20172;47.530;10.256;2022-08-01T12:45:12;32.10;66.50
33881;DHT22;20172;47.530;10.256;2022-08-01T12:47:39;32.20;69.00
33881;DHT22;20172;47.530;10.256;2022-08-01T12:50:07;32.30;68.90
33881;DHT22;20172;47.530;10.256;2022-08-01T12:52:33;32.20;67.40
33881;DHT22;20172;47.530;10.256;2022-08-01T12:57:30;32.20;65.30
33881;DHT22;20172;47.530;10.256;2022-08-01T13:02:43;32.40;63.10
33881;DHT22;20172;47.530;10.256;2022-08-01T13:05:10;32.80;68.80
33881;DHT22;20172;47.530;10.256;2022-08-01T13:07:40;32.80;68.80
33881;DHT22;20172;47.530;10.256;2022-08-01T13:10:07;32.50;67.90
33881;DHT22;20172;47.530;10.256;2022-08-01T13:12:33;32.20;67.60
33881;DHT22;20172;47.530;10.256;2022-08-01T13:14:59;32.20;68.50
33881;DHT22;20172;47.530;10.256;2022-08-01T13:17:34;32.30;68.00
33881;DHT22;20172;47.530;10.256;2022-08-01T13:20:05;32.30;65.30
33881;DHT22;20172;47.530;10.256;2022-08-01T13:22:35;32.30;66.50
33881;DHT22;20172;47.530;10.256;2022-08-01T13:25:14;32.50;69.90
33881;DHT22;20172;47.530;10.256;2022-08-01T13:27:40;32.50;66.20
33881;DHT22;20172;47.530;10.256;2022-08-01T13:30:13;32.40;64.90
33881;DHT22;20172;47.530;10.256;2022-08-01T13:32:40;32.20;66.20
33881;DHT22;20172;47.530;10.256;2022-08-01T13:35:12;32.50;65.00
33881;DHT22;20172;47.530;10.256;2022-08-01T13:37:41;32.80;65.10
33881;DHT22;20172;47.530;10.256;2022-08-01T13:40:09;33.00;58.60
33881;DHT22;20172;47.530;10.256;2022-08-01T13:42:35;33.50;61.60
33881;DHT22;20172;47.530;10.256;2022-08-01T13:45:02;34.30;59.70
33881;DHT22;20172;47.530;10.256;2022-08-01T13:47:28;34.60;60.30
33881;DHT22;20172;47.530;10.256;2022-08-01T13:49:54;34.60;61.00
33881;DHT22;20172;47.530;10.256;2022-08-01T13:52:20;34.30;59.60
33881;DHT22;20172;47.530;10.256;2022-08-01T13:54:45;34.10;59.50
33881;DHT22;20172;47.530;10.256;2022-08-01T13:57:11;34.00;60.50
33881;DHT22;20172;47.530;10.256;2022-08-01T13:59:37;34.30;59.50
33881;DHT22;20172;47.530;10.256;2022-08-01T14:02:03;34.50;57.40
33881;DHT22;20172;47.530;10.256;2022-08-01T14:04:28;34.60;56.60
33881;DHT22;20172;47.530;10.256;2022-08-01T14:06:54;34.50;56.90
33881;DHT22;20172;47.530;10.256;2022-08-01T14:09:19;34.70;62.00
33881;DHT22;20172;47.530;10.256;2022-08-01T14:11:48;34.90;58.40
33881;DHT22;20172;47.530;10.256;2022-08-01T14:14:13;35.00;59.80
33881;DHT22;20172;47.530;10.256;2022-08-01T14:16:39;35.00;56.30
33881;DHT22;20172;47.530;10.256;2022-08-01T14:19:05;34.80;57.00
33881;DHT22;20172;47.530;10.256;2022-08-01T14:21:31;35.10;57.40
33881;DHT22;20172;47.530;10.256;2022-08-01T14:23:56;34.70;54.20
33881;DHT22;20172;47.530;10.256;2022-08-01T14:26:22;34.00;56.00
33881;DHT22;20172;47.530;10.256;2022-08-01T14:28:48;34.10;57.30
33881;DHT22;20172;47.530;10.256;2022-08-01T14:31:13;34.30;57.90
33881;DHT22;20172;47.530;10.256;2022-08-01T14:33:39;34.40;57.80
33881;DHT22;20172;47.530;10.256;2022-08-01T14:36:05;34.60;58.80
33881;DHT22;20172;47.530;10.256;2022-08-01T14:38:31;33.80;55.30
33881;DHT22;20172;47.530;10.256;2022-08-01T14:40:56;33.90;58.40
33881;DHT22;20172;47.530;10.256;2022-08-01T14:43:22;33.70;53.80
33881;DHT22;20172;47.530;10.256;2022-08-01T14:45:48;33.50;54.70
33881;DHT22;20172;47.530;10.256;2022-08-01T14:48:18;32.70;56.50
33881;DHT22;20172;47.530;10.256;2022-08-01T14:50:43;32.20;56.00
33881;DHT22;20172;47.530;10.256;2022-08-01T14:53:09;32.00;56.30
33881;DHT22;20172;47.530;10.256;2022-08-01T14:55:35;32.10;56.70
33881;DHT22;20172;47.530;10.256;2022-08-01T14:58:00;32.40;56.30
33881;DHT22;20172;47.530;10.256;2022-08-01T15:00:26;32.50;57.30
33881;DHT22;20172;47.530;10.256;2022-08-01T15:02:52;32.30;54.30
33881;DHT22;20172;47.530;10.256;2022-08-01T15:05:17;31.70;56.20
33881;DHT22;20172;47.530;10.256;2022-08-01T15:07:43;31.60;58.20
33881;DHT22;20172;47.530;10.256;2022-08-01T15:10:09;31.30;58.20
33881;DHT22;20172;47.530;10.256;2022-08-01T15:12:34;31.30;57.10
33881;DHT22;20172;47.530;10.256;2022-08-01T15:15:00;30.80;57.70
33881;DHT22;20172;47.530;10.256;2022-08-01T15:17:30;30.90;60.30
33881;DHT22;20172;47.530;10.256;2022-08-01T15:20:00;31.30;60.80
33881;DHT22;20172;47.530;10.256;2022-08-01T15:22:27;31.20;56.10
33881;DHT22;20172;47.530;10.256;2022-08-01T15:24:55;31.20;57.00
33881;DHT22;20172;47.530;10.256;2022-08-01T15:27:21;30.80;57.90
33881;DHT22;20172;47.530;10.256;2022-08-01T15:29:48;30.70;57.80
33881;DHT22;20172;47.530;10.256;2022-08-01T15:32:14;30.80;58.00
33881;DHT22;20172;47.530;10.256;2022-08-01T15:34:40;30.90;59.30
33881;DHT22;20172;47.530;10.256;2022-08-01T15:37:06;31.20;60.90
33881;DHT22;20172;47.530;10.256;2022-08-01T15:39:32;31.40;60.40
33881;DHT22;20172;47.530;10.256;2022-08-01T15:42:02;31.40;58.20
33881;DHT22;20172;47.530;10.256;2022-08-01T15:44:29;31.50;57.30
33881;DHT22;20172;47.530;10.256;2022-08-01T15:46:54;31.50;57.30
33881;DHT22;20172;47.530;10.256;2022-08-01T15:49:20;31.40;58.00
33881;DHT22;20172;47.530;10.256;2022-08-01T15:51:48;31.60;59.00
33881;DHT22;20172;47.530;10.256;2022-08-01T15:54:14;31.40;59.30
33881;DHT22;20172;47.530;10.256;2022-08-01T15:56:40;30.90;58.20
33881;DHT22;20172;47.530;10.256;2022-08-01T15:59:06;30.70;59.60
33881;DHT22;20172;47.530;10.256;2022-08-01T16:01:32;30.50;60.00
33881;DHT22;20172;47.530;10.256;2022-08-01T16:03:58;30.40;59.40
33881;DHT22;20172;47.530;10.256;2022-08-01T16:06:24;30.40;61.80
33881;DHT22;20172;47.530;10.256;2022-08-01T16:08:50;30.40;62.10
33881;DHT22;20172;47.530;10.256;2022-08-01T16:11:17;30.50;60.20
33881;DHT22;20172;47.530;10.256;2022-08-01T16:13:43;30.50;57.80
33881;DHT22;20172;47.530;10.256;2022-08-01T16:16:10;30.60;58.90
33881;DHT22;20172;47.530;10.256;2022-08-01T16:18:36;30.60;61.30
33881;DHT22;20172;47.530;10.256;2022-08-01T16:21:02;30.50;62.10